createdAt,value
2022-11-26T00:01:21.360Z,7.10
2022-11-26T00:03:49.319Z,7.10
2022-11-26T00:06:37.290Z,7.10
2022-11-26T00:09:14.895Z,7.00
2022-11-26T00:11:41.822Z,7.00
2022-11-26T00:14:16.811Z,7.00
2022-11-26T00:16:44.177Z,7.10
2022-11-26T00:19:10.895Z,7.00
2022-11-26T00:21:39.694Z,7.10
2022-11-26T00:24:26.814Z,7.10
2022-11-26T00:26:55.884Z,7.10
2022-11-26T00:29:22.468Z,7.00
2022-11-26T00:31:49.131Z,7.10
2022-11-26T00:34:15.819Z,7.00
2022-11-26T00:36:45.594Z,7.00
2022-11-26T00:39:19.397Z,7.00
2022-11-26T00:41:50.171Z,7.10
2022-11-26T00:44:24.982Z,7.10
2022-11-26T00:46:52.506Z,7.10
2022-11-26T00:49:19.278Z,7.00
2022-11-26T00:51:46.753Z,7.00
2022-11-26T00:54:16.432Z,7.00
2022-11-26T00:56:43.026Z,7.00
2022-11-26T00:59:21.918Z,6.90
2022-11-26T01:01:49.498Z,6.90
2022-11-26T01:04:16.101Z,6.80
2022-11-26T01:06:44.714Z,6.90
2022-11-26T01:09:20.818Z,7.00
2022-11-26T01:11:53.452Z,7.00
2022-11-26T01:14:21.496Z,7.00
2022-11-26T01:16:48.935Z,7.00
2022-11-26T01:19:16.943Z,7.00
2022-11-26T01:21:43.619Z,7.00
2022-11-26T01:24:10.196Z,7.10
2022-11-26T01:26:44.565Z,7.10
2022-11-26T01:29:20.414Z,7.10
2022-11-26T01:31:47.527Z,7.10
2022-11-26T01:34:14.380Z,7.10
2022-11-26T01:36:41.937Z,7.00
2022-11-26T01:39:20.407Z,7.00
2022-11-26T01:41:52.808Z,7.10
2022-11-26T01:44:25.810Z,7.00
2022-11-26T01:46:53.292Z,7.10
2022-11-26T01:49:23.746Z,7.10
2022-11-26T01:52:11.123Z,7.00
2022-11-26T01:54:41.549Z,7.00
2022-11-26T01:57:14.383Z,7.00
2022-11-26T01:59:44.598Z,7.00
2022-11-26T02:02:11.323Z,7.00
2022-11-26T02:04:43.155Z,7.00
2022-11-26T02:07:09.743Z,7.00
2022-11-26T02:09:36.470Z,7.00
2022-11-26T02:12:03.287Z,6.90
2022-11-26T02:14:36.918Z,7.00
2022-11-26T02:17:30.418Z,6.90
2022-11-26T02:20:34.583Z,6.90
2022-11-26T02:23:09.411Z,6.90
2022-11-26T02:25:50.985Z,6.90
2022-11-26T02:28:48.552Z,6.90
2022-11-26T02:31:29.581Z,6.90
2022-11-26T02:34:11.112Z,6.90
2022-11-26T02:36:46.041Z,6.90
2022-11-26T02:39:13.884Z,6.90
2022-11-26T02:41:50.415Z,6.80
2022-11-26T02:44:20.781Z,6.80
2022-11-26T02:46:51.592Z,6.80
2022-11-26T02:49:21.549Z,6.80
2022-11-26T02:51:52.941Z,6.80
2022-11-26T02:54:21.318Z,6.80
2022-11-26T02:56:49.254Z,6.70
2022-11-26T02:59:16.216Z,6.70
2022-11-26T03:01:45.166Z,6.70
2022-11-26T03:04:19.290Z,6.70
2022-11-26T03:06:47.043Z,6.70
2022-11-26T03:09:17.502Z,6.70
2022-11-26T03:11:44.777Z,6.70
2022-11-26T03:14:11.351Z,6.60
2022-11-26T03:16:37.958Z,6.60
2022-11-26T03:19:04.843Z,6.60
2022-11-26T03:21:34.342Z,6.60
2022-11-26T03:24:01.047Z,6.50
2022-11-26T03:26:27.636Z,6.40
2022-11-26T03:28:54.172Z,6.40
2022-11-26T03:31:20.792Z,6.40
2022-11-26T03:33:47.457Z,6.40
2022-11-26T03:36:14.030Z,6.40
2022-11-26T03:38:40.608Z,6.50
2022-11-26T03:41:07.164Z,6.40
2022-11-26T03:43:33.711Z,6.30
2022-11-26T03:46:00.354Z,6.30
2022-11-26T03:48:26.954Z,6.40
2022-11-26T03:50:53.495Z,6.40
2022-11-26T03:53:20.068Z,6.40
2022-11-26T03:55:47.465Z,6.40
2022-11-26T03:58:14.423Z,6.40
2022-11-26T04:00:41.109Z,6.40
2022-11-26T04:03:07.745Z,6.40
2022-11-26T04:05:34.372Z,6.40
2022-11-26T04:08:00.915Z,6.50
2022-11-26T04:10:27.517Z,6.50
2022-11-26T04:12:54.214Z,6.50
2022-11-26T04:15:20.818Z,6.50
2022-11-26T04:17:47.358Z,6.60
2022-11-26T04:20:14.057Z,6.60
2022-11-26T04:22:40.727Z,6.60
2022-11-26T04:25:07.662Z,6.50
2022-11-26T04:27:34.239Z,6.50
2022-11-26T04:30:00.789Z,6.60
2022-11-26T04:32:28.326Z,6.60
2022-11-26T04:34:54.893Z,6.60
2022-11-26T04:37:21.485Z,6.60
2022-11-26T04:39:48.080Z,6.50
2022-11-26T04:42:14.619Z,6.50
2022-11-26T04:44:41.176Z,6.50
2022-11-26T04:47:08.019Z,6.50
2022-11-26T04:49:34.593Z,6.50
2022-11-26T04:52:01.186Z,6.50
2022-11-26T04:54:27.818Z,6.50
2022-11-26T04:56:54.355Z,6.50
2022-11-26T04:59:20.894Z,6.50
2022-11-26T05:01:47.502Z,6.40
2022-11-26T05:04:14.111Z,6.50
2022-11-26T05:06:40.661Z,6.60
2022-11-26T05:09:07.207Z,6.50
2022-11-26T05:11:33.767Z,6.50
2022-11-26T05:14:00.374Z,6.50
2022-11-26T05:16:26.985Z,6.50
2022-11-26T05:18:53.620Z,6.40
2022-11-26T05:21:20.219Z,6.40
2022-11-26T05:23:46.786Z,6.30
2022-11-26T05:26:13.391Z,6.40
2022-11-26T05:28:39.934Z,6.40
2022-11-26T05:31:06.545Z,6.50
2022-11-26T05:33:33.195Z,6.40
2022-11-26T05:36:00.225Z,6.30
2022-11-26T05:38:26.835Z,6.40
2022-11-26T05:40:53.417Z,6.30
2022-11-26T05:43:19.959Z,6.30
2022-11-26T05:45:46.518Z,6.30
2022-11-26T05:48:13.355Z,6.30
2022-11-26T05:50:39.926Z,6.40
2022-11-26T05:53:06.556Z,6.30
2022-11-26T05:55:33.133Z,6.40
2022-11-26T05:57:59.707Z,6.40
2022-11-26T06:00:26.910Z,6.40
2022-11-26T06:02:53.783Z,6.40
2022-11-26T06:05:20.520Z,6.40
2022-11-26T06:07:47.176Z,6.30
2022-11-26T06:10:13.943Z,6.30
2022-11-26T06:12:40.501Z,6.30
2022-11-26T06:15:07.468Z,6.30
2022-11-26T06:17:34.027Z,6.40
2022-11-26T06:20:00.581Z,6.20
2022-11-26T06:22:27.204Z,6.30
2022-11-26T06:24:53.930Z,6.20
2022-11-26T06:27:20.540Z,6.30
2022-11-26T06:29:47.093Z,6.30
2022-11-26T06:32:13.621Z,6.30
2022-11-26T06:34:43.534Z,6.30
2022-11-26T06:37:10.588Z,6.30
2022-11-26T06:39:37.157Z,6.30
2022-11-26T06:42:03.885Z,6.30
2022-11-26T06:44:30.444Z,6.30
2022-11-26T06:46:57.014Z,6.30
2022-11-26T06:49:23.568Z,6.30
2022-11-26T06:51:50.131Z,6.30
2022-11-26T06:54:16.875Z,6.30
2022-11-26T06:56:43.423Z,6.30
2022-11-26T06:59:10.067Z,6.30
2022-11-26T07:01:37.101Z,6.30
2022-11-26T07:04:03.919Z,6.30
2022-11-26T07:06:32.344Z,6.30
2022-11-26T07:09:08.159Z,6.30
2022-11-26T07:11:36.004Z,6.20
2022-11-26T07:14:03.253Z,6.20
2022-11-26T07:16:29.990Z,6.20
2022-11-26T07:19:02.748Z,6.20
2022-11-26T07:21:30.427Z,6.20
2022-11-26T07:23:57.916Z,6.20
2022-11-26T07:26:24.638Z,6.30
2022-11-26T07:28:51.579Z,6.30
2022-11-26T07:31:21.498Z,6.30
2022-11-26T07:33:48.959Z,6.30
2022-11-26T07:36:22.461Z,6.30
2022-11-26T07:38:49.593Z,6.40
2022-11-26T07:41:18.774Z,6.40
2022-11-26T07:43:46.151Z,6.40
2022-11-26T07:46:16.104Z,6.40
2022-11-26T07:48:43.315Z,6.30
2022-11-26T07:51:25.299Z,6.50
2022-11-26T07:53:52.935Z,6.40
2022-11-26T07:56:19.861Z,6.40
2022-11-26T07:58:47.031Z,6.40
2022-11-26T08:01:16.664Z,6.40
2022-11-26T08:03:46.063Z,6.50
2022-11-26T08:06:16.665Z,6.50
2022-11-26T08:08:43.204Z,6.60
2022-11-26T08:11:21.755Z,6.60
2022-11-26T08:13:52.476Z,6.60
2022-11-26T08:16:19.111Z,6.60
2022-11-26T08:18:45.731Z,6.60
2022-11-26T08:21:12.399Z,6.60
2022-11-26T08:23:39.401Z,6.50
2022-11-26T08:28:55.526Z,6.70
2022-11-26T08:31:24.654Z,6.70
2022-11-26T08:33:51.378Z,6.80
2022-11-26T08:36:18.012Z,6.80
2022-11-26T08:38:44.683Z,6.90
2022-11-26T08:41:12.405Z,6.90
2022-11-26T08:44:05.256Z,6.90
2022-11-26T08:46:26.809Z,6.90
2022-11-26T08:48:56.312Z,6.90
2022-11-26T08:51:23.139Z,7.00
2022-11-26T08:53:49.772Z,7.00
2022-11-26T08:56:16.354Z,7.10
2022-11-26T08:58:48.552Z,7.10
2022-11-26T09:01:21.694Z,7.20
2022-11-26T09:03:50.369Z,7.20
2022-11-26T09:06:18.385Z,7.30
2022-11-26T09:09:04.921Z,7.30
2022-11-26T09:11:33.275Z,7.40
2022-11-26T09:14:00.055Z,7.40
2022-11-26T09:16:27.084Z,7.40
2022-11-26T09:18:53.854Z,7.40
2022-11-26T09:21:21.493Z,7.40
2022-11-26T09:23:48.296Z,7.50
2022-11-26T09:26:14.867Z,7.60
2022-11-26T09:28:41.456Z,7.60
2022-11-26T09:31:08.093Z,7.70
2022-11-26T09:33:34.778Z,7.70
2022-11-26T09:36:09.690Z,7.80
2022-11-26T09:38:36.876Z,7.80
2022-11-26T09:41:34.931Z,7.90
2022-11-26T09:44:16.367Z,8.00
2022-11-26T09:47:13.009Z,8.00
2022-11-26T09:50:01.875Z,8.10
2022-11-26T09:52:53.255Z,8.10
2022-11-26T09:55:29.955Z,8.10
2022-11-26T09:58:14.805Z,8.20
2022-11-26T10:00:44.853Z,8.20
2022-11-26T10:03:30.728Z,8.20
2022-11-26T10:05:59.600Z,8.30
2022-11-26T10:09:02.106Z,8.30
2022-11-26T10:11:37.808Z,8.20
2022-11-26T10:14:31.432Z,8.30
2022-11-26T10:17:16.399Z,8.30
2022-11-26T10:20:14.024Z,8.30
2022-11-26T10:22:58.537Z,8.40
2022-11-26T10:25:29.346Z,8.40
2022-11-26T10:27:58.185Z,8.40
2022-11-26T10:30:27.542Z,8.40
2022-11-26T10:32:56.521Z,8.40
2022-11-26T10:35:25.797Z,8.50
2022-11-26T10:37:54.090Z,8.50
2022-11-26T10:40:29.055Z,8.60
2022-11-26T10:43:08.731Z,8.60
2022-11-26T10:45:37.318Z,8.60
2022-11-26T10:48:34.341Z,8.70
2022-11-26T10:51:16.527Z,8.70
2022-11-26T10:54:00.115Z,8.70
2022-11-26T10:56:36.744Z,8.70
2022-11-26T10:59:13.671Z,8.70
2022-11-26T11:01:41.285Z,8.80
2022-11-26T11:04:40.182Z,8.80
2022-11-26T11:07:26.784Z,8.80
2022-11-26T11:10:04.956Z,8.90
2022-11-26T11:12:31.673Z,8.90
2022-11-26T11:15:32.940Z,9.00
2022-11-26T11:18:06.539Z,9.00
2022-11-26T11:20:55.511Z,9.10
2022-11-26T11:24:00.229Z,9.10
2022-11-26T11:26:23.947Z,9.10
2022-11-26T11:28:55.141Z,9.10
2022-11-26T11:31:24.443Z,9.10
2022-11-26T11:34:10.839Z,9.20
2022-11-26T11:36:37.494Z,9.20
2022-11-26T11:39:05.116Z,9.20
2022-11-26T11:41:47.240Z,9.20
2022-11-26T11:44:36.905Z,9.30
2022-11-26T11:47:21.335Z,9.30
2022-11-26T11:50:15.371Z,9.30
2022-11-26T11:53:09.362Z,9.40
2022-11-26T11:56:17.555Z,9.40
2022-11-26T11:58:59.574Z,9.40
2022-11-26T12:01:53.617Z,9.50
2022-11-26T12:04:47.731Z,9.50
2022-11-26T12:07:40.440Z,9.60
2022-11-26T12:10:22.039Z,9.60
2022-11-26T12:12:56.851Z,9.60
2022-11-26T12:15:29.463Z,9.60
2022-11-26T12:18:10.680Z,9.70
2022-11-26T12:20:40.736Z,9.70
2022-11-26T12:23:28.594Z,9.80
2022-11-26T12:26:07.703Z,9.90
2022-11-26T12:28:40.342Z,10.00
2022-11-26T12:31:13.172Z,10.00
2022-11-26T12:33:53.822Z,10.00
2022-11-26T12:36:29.573Z,10.00
2022-11-26T12:39:00.987Z,10.00
2022-11-26T12:41:51.755Z,10.10
2022-11-26T12:44:22.261Z,10.10
2022-11-26T12:47:06.417Z,10.10
2022-11-26T12:49:44.896Z,10.10
2022-11-26T12:52:22.707Z,10.10
2022-11-26T12:55:23.450Z,10.20
2022-11-26T12:57:57.311Z,10.30
2022-11-26T13:00:35.504Z,10.40
2022-11-26T13:03:05.080Z,10.50
2022-11-26T13:05:34.627Z,10.60
2022-11-26T13:08:27.673Z,10.80
2022-11-26T13:11:14.197Z,11.00
2022-11-26T13:14:04.066Z,11.20
2022-11-26T13:16:44.858Z,11.30
2022-11-26T13:19:30.777Z,11.30
2022-11-26T13:22:03.404Z,11.30
2022-11-26T13:24:38.791Z,11.20
2022-11-26T13:27:26.337Z,11.20
2022-11-26T13:30:05.339Z,11.20
2022-11-26T13:33:01.081Z,11.10
2022-11-26T13:35:27.584Z,11.00
2022-11-26T13:37:56.954Z,10.90
2022-11-26T13:40:44.706Z,10.80
2022-11-26T13:43:30.745Z,10.70
2022-11-26T13:46:20.456Z,10.70
2022-11-26T13:49:06.768Z,10.60
2022-11-26T13:51:45.001Z,10.60
2022-11-26T13:54:19.821Z,10.60
2022-11-26T13:56:48.270Z,10.50
2022-11-26T13:59:25.384Z,10.50
2022-11-26T14:01:54.862Z,10.50
2022-11-26T14:04:24.230Z,10.40
2022-11-26T14:07:18.775Z,10.40
2022-11-26T14:09:45.379Z,10.40
2022-11-26T14:12:16.062Z,10.40
2022-11-26T14:14:45.925Z,10.40
2022-11-26T14:17:29.957Z,10.40
2022-11-26T14:19:59.534Z,10.40
2022-11-26T14:22:34.904Z,10.40
2022-11-26T14:25:07.089Z,10.40
2022-11-26T14:27:39.018Z,10.40
2022-11-26T14:30:08.609Z,10.40
2022-11-26T14:32:58.073Z,10.40
2022-11-26T14:35:34.326Z,10.40
2022-11-26T14:38:03.806Z,10.40
2022-11-26T14:40:34.037Z,10.50
2022-11-26T14:43:19.352Z,10.50
2022-11-26T14:45:58.803Z,10.50
2022-11-26T14:48:28.087Z,10.50
2022-11-26T14:50:58.111Z,10.50
2022-11-26T14:53:29.100Z,10.50
2022-11-26T14:55:57.239Z,10.50
2022-11-26T14:58:31.098Z,10.50
2022-11-26T15:01:07.031Z,10.40
2022-11-26T15:03:33.929Z,10.40
2022-11-26T15:06:00.539Z,10.40
2022-11-26T15:08:27.964Z,10.40
2022-11-26T15:11:01.641Z,10.40
2022-11-26T15:13:30.775Z,10.40
2022-11-26T15:15:59.965Z,10.40
2022-11-26T15:18:30.407Z,10.30
2022-11-26T15:20:58.796Z,10.30
2022-11-26T15:23:30.839Z,10.30
2022-11-26T15:25:58.743Z,10.30
2022-11-26T15:28:25.441Z,10.20
2022-11-26T15:31:00.418Z,10.20
2022-11-26T15:33:28.589Z,10.20
2022-11-26T15:35:59.261Z,10.10
2022-11-26T15:38:31.649Z,10.10
2022-11-26T15:41:00.662Z,10.10
2022-11-26T15:43:40.697Z,10.00
2022-11-26T15:46:19.222Z,10.00
2022-11-26T15:48:53.499Z,9.90
2022-11-26T15:51:29.428Z,9.90
2022-11-26T15:53:59.255Z,9.80
2022-11-26T15:56:29.920Z,9.80
2022-11-26T15:59:00.677Z,9.80
2022-11-26T16:01:32.331Z,9.70
2022-11-26T16:04:06.060Z,9.80
2022-11-26T16:06:38.407Z,9.70
2022-11-26T16:09:07.452Z,9.60
2022-11-26T16:11:36.877Z,9.60
2022-11-26T16:14:23.069Z,9.60
2022-11-26T16:16:52.643Z,9.60
2022-11-26T16:19:22.533Z,9.50
2022-11-26T16:21:53.601Z,9.50
2022-11-26T16:24:33.417Z,9.50
2022-11-26T16:27:06.638Z,9.40
2022-11-26T16:29:37.737Z,9.40
2022-11-26T16:32:04.403Z,9.40
2022-11-26T16:34:31.003Z,9.30
2022-11-26T16:37:21.110Z,9.30
2022-11-26T16:39:48.942Z,9.30
2022-11-26T16:42:23.146Z,9.20
2022-11-26T16:44:50.272Z,9.30
2022-11-26T16:47:23.274Z,9.30
2022-11-26T16:49:50.155Z,9.20
2022-11-26T16:52:18.491Z,9.20
2022-11-26T16:54:45.179Z,9.20
2022-11-26T16:57:17.273Z,9.10
2022-11-26T16:59:45.570Z,9.10
2022-11-26T17:02:17.567Z,9.00
2022-11-26T17:04:44.852Z,9.00
2022-11-26T17:07:23.163Z,9.00
2022-11-26T17:09:50.357Z,9.00
2022-11-26T17:12:21.695Z,9.00
2022-11-26T17:14:48.506Z,9.00
2022-11-26T17:17:20.517Z,9.00
2022-11-26T17:19:50.871Z,9.00
2022-11-26T17:22:17.601Z,8.90
2022-11-26T17:24:44.239Z,8.90
2022-11-26T17:27:15.693Z,8.90
2022-11-26T17:29:44.324Z,8.90
2022-11-26T17:32:16.992Z,8.80
2022-11-26T17:34:44.611Z,8.80
2022-11-26T17:37:22.660Z,8.80
2022-11-26T17:39:49.296Z,8.80
2022-11-26T17:42:15.925Z,8.80
2022-11-26T17:44:42.455Z,8.60
2022-11-26T17:47:21.314Z,8.60
2022-11-26T17:49:48.371Z,8.60
2022-11-26T17:52:16.203Z,8.60
2022-11-26T17:54:44.108Z,8.60
2022-11-26T17:57:12.430Z,8.60
2022-11-26T17:59:39.437Z,8.60
2022-11-26T18:02:06.894Z,8.50
2022-11-26T18:04:33.614Z,8.50
2022-11-26T18:07:12.255Z,8.50
2022-11-26T18:09:39.881Z,8.50
2022-11-26T18:12:08.383Z,8.50
2022-11-26T18:14:40.060Z,8.50
2022-11-26T18:17:09.271Z,8.50
2022-11-26T18:19:40.728Z,8.50
2022-11-26T18:22:14.026Z,8.50
2022-11-26T18:24:40.627Z,8.50
2022-11-26T18:27:07.229Z,8.50
2022-11-26T18:29:34.013Z,8.40
2022-11-26T18:32:00.642Z,8.40
2022-11-26T18:34:27.281Z,8.40
2022-11-26T18:36:54.204Z,8.40
2022-11-26T18:39:20.884Z,8.40
2022-11-26T18:41:47.483Z,8.50
2022-11-26T18:44:14.090Z,8.40
2022-11-26T18:46:40.705Z,8.40
2022-11-26T18:49:07.339Z,8.40
2022-11-26T18:51:33.888Z,8.30
2022-11-26T18:54:01.744Z,8.40
2022-11-26T18:56:28.371Z,8.30
2022-11-26T18:58:55.621Z,8.30
2022-11-26T19:01:27.613Z,8.20
2022-11-26T19:03:55.101Z,8.20
2022-11-26T19:06:24.833Z,8.20
2022-11-26T19:08:56.724Z,8.20
2022-11-26T19:11:27.678Z,8.30
2022-11-26T19:13:55.867Z,8.20
2022-11-26T19:16:23.407Z,8.10
2022-11-26T19:18:50.488Z,8.20
2022-11-26T19:21:35.981Z,8.10
2022-11-26T19:24:05.299Z,8.10
2022-11-26T19:26:32.419Z,8.10
2022-11-26T19:29:04.916Z,8.10
2022-11-26T19:31:35.782Z,8.10
2022-11-26T19:34:05.947Z,8.10
2022-11-26T19:36:33.487Z,7.90
2022-11-26T19:39:01.495Z,8.00
2022-11-26T19:41:29.095Z,8.00
2022-11-26T19:43:55.979Z,7.90
2022-11-26T19:46:24.532Z,8.00
2022-11-26T19:48:52.418Z,8.00
2022-11-26T19:51:21.456Z,8.00
2022-11-26T19:53:50.384Z,8.00
2022-11-26T19:56:28.721Z,7.90
2022-11-26T19:58:58.193Z,7.80
2022-11-26T20:01:30.380Z,7.70
2022-11-26T20:03:59.395Z,7.70
2022-11-26T20:06:27.652Z,7.60
2022-11-26T20:08:55.135Z,7.60
2022-11-26T20:11:22.675Z,7.60
2022-11-26T20:13:50.261Z,7.60
2022-11-26T20:16:23.676Z,7.60
2022-11-26T20:18:50.825Z,7.70
2022-11-26T20:21:20.402Z,7.60
2022-11-26T20:23:48.456Z,7.60
2022-11-26T20:26:18.582Z,7.60
2022-11-26T20:28:46.086Z,7.70
2022-11-26T20:31:13.906Z,7.70
2022-11-26T20:33:41.462Z,7.60
2022-11-26T20:36:09.830Z,7.60
2022-11-26T20:38:37.100Z,7.60
2022-11-26T20:41:08.949Z,7.60
2022-11-26T20:43:36.128Z,7.60
2022-11-26T20:46:06.847Z,7.50
2022-11-26T20:48:35.214Z,7.50
2022-11-26T20:51:07.558Z,7.50
2022-11-26T20:53:36.367Z,7.50
2022-11-26T20:56:04.264Z,7.50
2022-11-26T20:58:31.230Z,7.50
2022-11-26T21:00:57.879Z,7.60
2022-11-26T21:03:26.375Z,7.60
2022-11-26T21:05:53.098Z,7.50
2022-11-26T21:08:20.963Z,7.50
2022-11-26T21:10:48.026Z,7.50
2022-11-26T21:13:16.932Z,7.50
2022-11-26T21:15:47.187Z,7.50
2022-11-26T21:18:14.539Z,7.50
2022-11-26T21:20:42.704Z,7.60
2022-11-26T21:23:10.528Z,7.50
2022-11-26T21:25:38.622Z,7.40
2022-11-26T21:28:06.484Z,7.30
2022-11-26T21:30:34.172Z,7.20
2022-11-26T21:33:07.470Z,7.30
2022-11-26T21:35:35.966Z,7.40
2022-11-26T21:38:02.583Z,7.30
2022-11-26T21:40:29.435Z,7.30
2022-11-26T21:42:56.082Z,7.30
2022-11-26T21:45:23.147Z,7.20
2022-11-26T21:47:52.651Z,7.10
2022-11-26T21:50:19.820Z,7.20
2022-11-26T21:52:46.901Z,7.10
2022-11-26T21:55:13.574Z,7.20
2022-11-26T21:57:40.184Z,7.00
2022-11-26T22:00:07.334Z,6.90
2022-11-26T22:02:33.970Z,6.90
2022-11-26T22:05:00.589Z,7.00
2022-11-26T22:07:27.331Z,7.00
2022-11-26T22:09:54.219Z,7.00
2022-11-26T22:12:20.772Z,7.00
2022-11-26T22:14:47.374Z,7.00
2022-11-26T22:17:13.925Z,6.90
2022-11-26T22:19:40.763Z,6.80
2022-11-26T22:22:07.696Z,6.90
2022-11-26T22:24:34.230Z,6.90
2022-11-26T22:27:00.850Z,7.00
2022-11-26T22:29:27.410Z,7.00
2022-11-26T22:31:54.055Z,6.80
2022-11-26T22:34:21.911Z,6.80
2022-11-26T22:36:48.767Z,6.80
2022-11-26T22:39:17.184Z,6.70
2022-11-26T22:41:45.581Z,6.80
2022-11-26T22:44:13.205Z,6.80
2022-11-26T22:46:39.928Z,6.80
2022-11-26T22:49:07.004Z,6.90
2022-11-26T22:51:34.888Z,6.80
2022-11-26T22:54:04.077Z,6.80
2022-11-26T22:56:30.987Z,6.90
2022-11-26T22:58:57.703Z,6.90
2022-11-26T23:01:32.283Z,7.00
2022-11-26T23:04:00.994Z,7.00
2022-11-26T23:06:29.298Z,6.90
2022-11-26T23:08:57.637Z,6.90
2022-11-26T23:11:27.185Z,6.90
2022-11-26T23:13:54.076Z,6.90
2022-11-26T23:16:23.136Z,6.80
2022-11-26T23:18:50.218Z,6.80
2022-11-26T23:21:20.477Z,6.80
2022-11-26T23:23:47.548Z,6.80
2022-11-26T23:26:25.013Z,6.90
2022-11-26T23:28:54.263Z,6.90
2022-11-26T23:31:23.401Z,6.80
2022-11-26T23:33:50.115Z,6.80
2022-11-26T23:36:17.633Z,6.70
2022-11-26T23:38:44.322Z,6.70
2022-11-26T23:41:11.090Z,6.70
2022-11-26T23:43:39.268Z,6.60
2022-11-26T23:46:13.529Z,6.70
2022-11-26T23:48:40.343Z,6.70
2022-11-26T23:51:09.005Z,6.60
2022-11-26T23:53:39.731Z,6.50
2022-11-26T23:56:08.722Z,6.60
2022-11-26T23:58:35.348Z,6.50
